createdAt,value
2023-02-27T00:03:44.738Z,98508.31
2023-02-27T00:08:46.954Z,98494.06
2023-02-27T00:13:49.585Z,98537.88
2023-02-27T00:18:51.827Z,98502.63
2023-02-27T00:23:54.137Z,98544.56
2023-02-27T00:28:56.361Z,98519.06
2023-02-27T00:33:58.678Z,98557.34
2023-02-27T00:39:19.874Z,98537.97
2023-02-27T00:44:26.152Z,98549.88
2023-02-27T00:49:28.282Z,98588.09
2023-02-27T00:54:30.609Z,98567.81
2023-02-27T00:59:33.041Z,98571.81
2023-02-27T01:04:35.305Z,98597.06
2023-02-27T01:09:37.573Z,98594.28
2023-02-27T01:14:40.049Z,98603.47
2023-02-27T01:19:42.300Z,98590.00
2023-02-27T01:24:45.694Z,98575.84
2023-02-27T01:29:49.046Z,98619.31
2023-02-27T01:34:51.590Z,98609.31
2023-02-27T01:39:53.940Z,98630.63
2023-02-27T01:45:11.394Z,98652.22
2023-02-27T01:50:14.690Z,98611.63
2023-02-27T01:55:16.852Z,98668.09
2023-02-27T02:00:19.620Z,98638.00
2023-02-27T02:05:22.538Z,98689.19
2023-02-27T02:10:24.966Z,98687.84
2023-02-27T02:15:35.348Z,98705.19
2023-02-27T02:21:05.138Z,98733.69
2023-02-27T02:26:18.682Z,98745.47
2023-02-27T02:31:41.656Z,98758.53
2023-02-27T02:37:14.498Z,98763.34
2023-02-27T02:42:31.303Z,98691.00
2023-02-27T02:47:56.196Z,98778.56
2023-02-27T02:53:33.732Z,98786.09
2023-02-27T02:58:58.432Z,98801.25
2023-02-27T03:04:10.320Z,98784.56
2023-02-27T03:09:23.260Z,98827.34
2023-02-27T03:15:02.134Z,98808.94
2023-02-27T03:20:09.685Z,98846.00
2023-02-27T03:25:13.099Z,98837.41
2023-02-27T03:30:25.887Z,98843.47
2023-02-27T03:36:12.673Z,98824.03
2023-02-27T03:41:22.408Z,98852.56
2023-02-27T03:46:39.534Z,98882.59
2023-02-27T03:51:41.931Z,98900.53
2023-02-27T03:56:50.222Z,98908.88
2023-02-27T04:01:52.988Z,98915.50
2023-02-27T04:07:18.153Z,98922.34
2023-02-27T04:12:31.152Z,98910.31
2023-02-27T04:17:40.615Z,98934.41
2023-02-27T04:22:42.551Z,98944.91
2023-02-27T04:28:05.567Z,98933.88
2023-02-27T04:33:12.525Z,98965.91
2023-02-27T04:38:26.700Z,98970.22
2023-02-27T04:43:29.727Z,98941.56
2023-02-27T04:48:40.994Z,98990.66
2023-02-27T04:53:46.349Z,98997.38
2023-02-27T04:58:55.464Z,98997.81
2023-02-27T05:04:00.378Z,99008.97
2023-02-27T05:09:10.756Z,99027.97
2023-02-27T05:14:22.088Z,98988.34
2023-02-27T05:19:24.346Z,99016.94
2023-02-27T05:24:33.785Z,99047.38
2023-02-27T05:29:45.152Z,99046.69
2023-02-27T05:35:09.827Z,99009.72
2023-02-27T05:40:16.116Z,99010.06
2023-02-27T05:45:21.674Z,99059.25
2023-02-27T05:50:28.004Z,99045.84
2023-02-27T05:55:36.165Z,99077.22
2023-02-27T06:00:55.284Z,99082.31
2023-02-27T06:05:58.969Z,99083.75
2023-02-27T06:11:01.970Z,99095.72
2023-02-27T06:16:04.422Z,99108.81
2023-02-27T06:21:06.774Z,99097.16
2023-02-27T06:26:13.822Z,99119.19
2023-02-27T06:31:16.442Z,99103.88
2023-02-27T06:36:18.709Z,99133.72
2023-02-27T06:41:21.266Z,99114.41
2023-02-27T06:46:41.285Z,99104.25
2023-02-27T06:51:46.477Z,99115.69
2023-02-27T06:56:55.427Z,99134.84
2023-02-27T07:01:59.383Z,99146.44
2023-02-27T07:07:35.189Z,99143.28
2023-02-27T07:12:23.800Z,99149.38
2023-02-27T07:17:26.017Z,99126.47
2023-02-27T07:22:28.291Z,99115.59
2023-02-27T07:27:30.932Z,99177.88
2023-02-27T07:32:33.215Z,99185.78
2023-02-27T07:37:35.477Z,99211.97
2023-02-27T07:42:37.729Z,99169.72
2023-02-27T07:47:40.094Z,99219.97
2023-02-27T07:52:45.037Z,99193.63
2023-02-27T07:58:05.465Z,99233.69
2023-02-27T08:03:07.760Z,99215.09
2023-02-27T08:08:09.968Z,99202.75
2023-02-27T08:13:12.160Z,99201.19
2023-02-27T08:18:14.297Z,99242.97
2023-02-27T08:23:16.484Z,99231.56
2023-02-27T08:28:18.747Z,99213.41
2023-02-27T08:33:21.911Z,99259.09
2023-02-27T08:38:26.315Z,99263.66
2023-02-27T08:43:28.675Z,99240.72
2023-02-27T08:48:30.898Z,99229.00
2023-02-27T08:53:33.004Z,99214.94
2023-02-27T08:58:39.320Z,99281.41
2023-02-27T09:03:44.449Z,99267.19
2023-02-27T09:08:46.588Z,99300.66
2023-02-27T09:13:49.030Z,99296.81
2023-02-27T09:18:51.546Z,99315.44
2023-02-27T09:23:53.766Z,99332.31
2023-02-27T09:28:55.926Z,99334.13
2023-02-27T09:33:58.091Z,99296.91
2023-02-27T09:39:00.351Z,99351.19
2023-02-27T09:44:03.027Z,99321.50
2023-02-27T09:49:05.341Z,99352.69
2023-02-27T09:54:08.228Z,99325.75
2023-02-27T09:59:29.300Z,99355.41
2023-02-27T10:05:08.650Z,99302.03
2023-02-27T10:10:20.167Z,99350.06
2023-02-27T10:15:38.384Z,99342.22
2023-02-27T10:20:47.944Z,99381.47
2023-02-27T10:25:50.408Z,99391.34
2023-02-27T10:30:55.043Z,99391.41
2023-02-27T10:35:58.517Z,99395.81
2023-02-27T10:41:02.778Z,99408.44
2023-02-27T10:46:15.898Z,99416.38
2023-02-27T10:51:31.512Z,99412.19
2023-02-27T10:56:34.162Z,99426.59
2023-02-27T11:02:18.074Z,99428.59
2023-02-27T11:07:31.721Z,99435.22
2023-02-27T11:12:35.386Z,99442.81
2023-02-27T11:17:37.482Z,99433.38
2023-02-27T11:22:41.896Z,99455.63
2023-02-27T11:27:46.561Z,99458.09
2023-02-27T11:32:51.545Z,99418.25
2023-02-27T11:37:55.992Z,99456.09
2023-02-27T11:43:05.312Z,99452.56
2023-02-27T11:48:14.921Z,99460.00
2023-02-27T11:53:35.917Z,99480.84
2023-02-27T11:58:43.614Z,99480.25
2023-02-27T12:04:11.554Z,99478.81
2023-02-27T12:09:27.500Z,99452.09
2023-02-27T12:14:38.601Z,99482.72
2023-02-27T12:19:44.709Z,99488.56
2023-02-27T12:24:56.149Z,99508.56
2023-02-27T12:30:28.577Z,99513.22
2023-02-27T12:35:35.091Z,99496.81
2023-02-27T12:40:40.009Z,99516.63
2023-02-27T12:46:00.370Z,99542.88
2023-02-27T12:51:23.390Z,99523.59
2023-02-27T12:56:37.534Z,99530.59
2023-02-27T13:01:48.560Z,99521.91
2023-02-27T13:06:58.283Z,99579.81
2023-02-27T13:12:03.100Z,99579.44
2023-02-27T13:17:17.410Z,99584.66
2023-02-27T13:22:22.460Z,99585.31
2023-02-27T13:27:28.932Z,99589.09
2023-02-27T13:32:56.063Z,99601.00
2023-02-27T13:38:05.551Z,99579.78
2023-02-27T13:43:51.115Z,99612.22
2023-02-27T13:49:29.470Z,99605.97
2023-02-27T13:54:34.163Z,99618.69
2023-02-27T13:59:39.861Z,99634.19
2023-02-27T14:04:53.750Z,99632.34
2023-02-27T14:10:11.760Z,99616.66
2023-02-27T14:15:51.690Z,99647.88
2023-02-27T14:20:54.053Z,99642.38
2023-02-27T14:26:00.128Z,99665.84
2023-02-27T14:31:03.468Z,99671.75
2023-02-27T14:36:08.704Z,99638.75
2023-02-27T14:41:27.523Z,99687.81
2023-02-27T14:46:41.979Z,99688.84
2023-02-27T14:51:44.648Z,99687.88
2023-02-27T14:57:01.591Z,99689.47
2023-02-27T15:02:22.164Z,99703.22
2023-02-27T15:07:31.617Z,99697.28
2023-02-27T15:12:37.914Z,99700.31
2023-02-27T15:17:46.418Z,99708.59
2023-02-27T15:22:48.632Z,99638.50
2023-02-27T15:27:50.996Z,99678.72
2023-02-27T15:32:55.673Z,99733.44
2023-02-27T15:38:02.787Z,99744.66
2023-02-27T15:43:05.371Z,99688.31
2023-02-27T15:48:07.727Z,99768.09
2023-02-27T15:53:17.333Z,99770.44
2023-02-27T15:58:25.442Z,99739.75
2023-02-27T16:03:33.267Z,99733.78
2023-02-27T16:08:35.498Z,99769.97
2023-02-27T16:13:39.293Z,99814.00
2023-02-27T16:18:47.916Z,99806.63
2023-02-27T16:23:50.586Z,99782.31
2023-02-27T16:28:56.756Z,99826.91
2023-02-27T16:34:01.372Z,99795.69
2023-02-27T16:39:06.231Z,99769.66
2023-02-27T16:44:08.472Z,99835.94
2023-02-27T16:49:29.333Z,99841.75
2023-02-27T16:54:31.616Z,99819.25
2023-02-27T16:59:40.112Z,99858.88
2023-02-27T17:04:48.308Z,99784.03
2023-02-27T17:09:52.909Z,99827.75
2023-02-27T17:14:56.031Z,99842.97
2023-02-27T17:19:58.255Z,99852.13
2023-02-27T17:25:00.875Z,99887.00
2023-02-27T17:30:04.981Z,99851.22
2023-02-27T17:35:08.204Z,99881.69
2023-02-27T17:40:14.531Z,99871.38
2023-02-27T17:45:17.043Z,99856.72
2023-02-27T17:50:22.489Z,99895.44
2023-02-27T17:55:24.660Z,99879.31
2023-02-27T18:00:26.844Z,99868.97
2023-02-27T18:05:29.045Z,99841.34
2023-02-27T18:10:31.487Z,99836.13
2023-02-27T18:15:33.766Z,99781.50
2023-02-27T18:20:36.338Z,99872.09
2023-02-27T18:25:38.731Z,99837.28
2023-02-27T18:30:43.867Z,99872.66
2023-02-27T18:35:49.541Z,99856.84
2023-02-27T18:40:51.690Z,99861.53
2023-02-27T18:45:53.837Z,99862.66
2023-02-27T18:51:00.850Z,99844.34
2023-02-27T18:56:05.118Z,99854.34
2023-02-27T19:01:08.746Z,99872.66
2023-02-27T19:06:10.853Z,99903.38
2023-02-27T19:11:33.583Z,99893.94
2023-02-27T19:16:36.031Z,99856.78
2023-02-27T19:21:38.665Z,99882.50
2023-02-27T19:26:41.247Z,99875.63
2023-02-27T19:31:44.886Z,99864.44
2023-02-27T19:36:47.297Z,99878.19
2023-02-27T19:41:49.677Z,99852.28
2023-02-27T19:46:53.327Z,99834.75
2023-02-27T19:51:55.914Z,99838.94
2023-02-27T19:56:58.066Z,99811.41
2023-02-27T20:02:00.539Z,99812.19
2023-02-27T20:07:02.780Z,99855.78
2023-02-27T20:12:05.439Z,99875.06
2023-02-27T20:17:08.282Z,99859.44
2023-02-27T20:22:11.241Z,99843.19
2023-02-27T20:27:15.354Z,99835.00
2023-02-27T20:32:17.877Z,99880.50
2023-02-27T20:37:20.164Z,99847.38
2023-02-27T20:42:22.314Z,99874.16
2023-02-27T20:47:24.523Z,99889.34
2023-02-27T20:52:28.110Z,99852.28
2023-02-27T20:57:30.311Z,99829.22
2023-02-27T21:02:32.447Z,99871.06
2023-02-27T21:07:34.600Z,99888.25
2023-02-27T21:12:37.112Z,99894.63
2023-02-27T21:17:39.228Z,99858.31
2023-02-27T21:22:41.338Z,99837.25
2023-02-27T21:27:43.471Z,99833.16
2023-02-27T21:32:45.742Z,99864.38
2023-02-27T21:37:48.334Z,99830.03
2023-02-27T21:42:53.134Z,99830.59
2023-02-27T21:47:55.406Z,99862.38
2023-02-27T21:52:57.562Z,99819.03
2023-02-27T21:57:59.745Z,99823.88
2023-02-27T22:03:01.994Z,99869.84
2023-02-27T22:08:04.429Z,99862.78
2023-02-27T22:13:06.597Z,99838.78
2023-02-27T22:18:09.176Z,99865.50
2023-02-27T22:23:11.414Z,99811.03
2023-02-27T22:28:13.615Z,99875.81
2023-02-27T22:33:16.056Z,99853.28
2023-02-27T22:38:18.337Z,99838.09
2023-02-27T22:43:20.573Z,99777.63
2023-02-27T22:48:22.848Z,99833.91
2023-02-27T22:53:25.105Z,99845.97
2023-02-27T22:58:27.421Z,99829.13
2023-02-27T23:03:30.126Z,99831.22
2023-02-27T23:08:32.386Z,99825.03
2023-02-27T23:13:34.743Z,99815.19
2023-02-27T23:18:38.780Z,99832.34
2023-02-27T23:23:41.060Z,99774.44
2023-02-27T23:28:43.376Z,99778.03
2023-02-27T23:33:45.981Z,99804.72
2023-02-27T23:38:48.217Z,99790.13
2023-02-27T23:43:53.993Z,99777.84
2023-02-27T23:48:59.720Z,99817.59
2023-02-27T23:54:01.953Z,99823.22
2023-02-27T23:59:05.961Z,99799.41
